Terminal Aerodrome Forecast
Issued by NWS

Home | Current Version | Previous Version | Text Only | Print | Product List | Glossary Off
Versions: 1 2 3 4 5 6 7 8 9 10 11 12 13 14 15 16 17

000
FTUS43 KTOP 221700
TAFMHK
TAF
KMHK 221720Z 2218/2318 25007KT P6SM SCT150
     FM222300 VRB08KT P6SM VCTS BKN080CB BKN150
     FM230100 04006KT P6SM SCT100=

USA.gov is the U.S. government's official web portal to all federal, state and local government web resources and services.